sensor_id;sensor_type;location;lat;lon;timestamp;P1;durP1;ratioP1;P2;durP2;ratioP2
57325;SDS011;43161;50.950;18.224;2023-05-14T00:01:33;15.40;;;7.10;;
57325;SDS011;43161;50.950;18.224;2023-05-14T00:03:59;15.50;;;7.50;;
57325;SDS011;43161;50.950;18.224;2023-05-14T00:06:24;14.90;;;7.60;;
57325;SDS011;43161;50.950;18.224;2023-05-14T00:08:50;17.50;;;7.80;;
57325;SDS011;43161;50.950;18.224;2023-05-14T00:11:16;16.90;;;8.00;;
57325;SDS011;43161;50.950;18.224;2023-05-14T00:13:42;17.60;;;7.90;;
57325;SDS011;43161;50.950;18.224;2023-05-14T00:16:08;15.50;;;7.70;;
57325;SDS011;43161;50.950;18.224;2023-05-14T00:18:33;16.40;;;7.70;;
57325;SDS011;43161;50.950;18.224;2023-05-14T00:20:59;19.50;;;8.60;;
57325;SDS011;43161;50.950;18.224;2023-05-14T00:23:24;18.80;;;8.90;;
57325;SDS011;43161;50.950;18.224;2023-05-14T00:25:50;18.40;;;8.80;;
57325;SDS011;43161;50.950;18.224;2023-05-14T00:28:16;18.10;;;8.70;;
57325;SDS011;43161;50.950;18.224;2023-05-14T00:30:41;18.30;;;9.30;;
57325;SDS011;43161;50.950;18.224;2023-05-14T00:33:07;19.30;;;9.20;;
57325;SDS011;43161;50.950;18.224;2023-05-14T00:35:33;17.00;;;8.70;;
57325;SDS011;43161;50.950;18.224;2023-05-14T00:38:00;16.40;;;8.30;;
57325;SDS011;43161;50.950;18.224;2023-05-14T00:40:27;20.60;;;9.20;;
57325;SDS011;43161;50.950;18.224;2023-05-14T00:42:53;18.20;;;9.50;;
57325;SDS011;43161;50.950;18.224;2023-05-14T00:45:20;17.80;;;9.00;;
57325;SDS011;43161;50.950;18.224;2023-05-14T00:47:46;23.10;;;10.70;;
57325;SDS011;43161;50.950;18.224;2023-05-14T00:50:13;18.40;;;10.00;;
57325;SDS011;43161;50.950;18.224;2023-05-14T00:52:40;20.50;;;10.50;;
57325;SDS011;43161;50.950;18.224;2023-05-14T00:55:06;20.70;;;11.20;;
57325;SDS011;43161;50.950;18.224;2023-05-14T00:57:33;21.20;;;10.10;;
57325;SDS011;43161;50.950;18.224;2023-05-14T01:00:00;18.50;;;10.20;;
57325;SDS011;43161;50.950;18.224;2023-05-14T01:02:26;21.20;;;11.00;;
57325;SDS011;43161;50.950;18.224;2023-05-14T01:04:52;22.10;;;11.20;;
57325;SDS011;43161;50.950;18.224;2023-05-14T01:12:44;23.50;;;11.40;;
57325;SDS011;43161;50.950;18.224;2023-05-14T01:15:20;22.50;;;10.60;;
57325;SDS011;43161;50.950;18.224;2023-05-14T01:17:53;23.20;;;11.90;;
57325;SDS011;43161;50.950;18.224;2023-05-14T01:20:21;20.20;;;11.40;;
57325;SDS011;43161;50.950;18.224;2023-05-14T01:22:46;23.20;;;11.20;;
57325;SDS011;43161;50.950;18.224;2023-05-14T01:25:12;21.30;;;10.70;;
57325;SDS011;43161;50.950;18.224;2023-05-14T01:30:33;22.40;;;12.10;;
57325;SDS011;43161;50.950;18.224;2023-05-14T01:33:01;22.90;;;11.80;;
57325;SDS011;43161;50.950;18.224;2023-05-14T01:35:30;21.60;;;11.50;;
57325;SDS011;43161;50.950;18.224;2023-05-14T01:37:57;24.20;;;12.90;;
57325;SDS011;43161;50.950;18.224;2023-05-14T01:40:24;22.80;;;12.20;;
57325;SDS011;43161;50.950;18.224;2023-05-14T01:42:51;25.30;;;13.20;;
57325;SDS011;43161;50.950;18.224;2023-05-14T01:45:24;27.60;;;12.90;;
57325;SDS011;43161;50.950;18.224;2023-05-14T01:47:49;24.50;;;13.40;;
57325;SDS011;43161;50.950;18.224;2023-05-14T01:50:16;24.30;;;13.00;;
57325;SDS011;43161;50.950;18.224;2023-05-14T01:52:41;24.10;;;13.50;;
57325;SDS011;43161;50.950;18.224;2023-05-14T01:55:07;25.00;;;13.50;;
57325;SDS011;43161;50.950;18.224;2023-05-14T01:57:33;24.60;;;13.50;;
57325;SDS011;43161;50.950;18.224;2023-05-14T01:59:59;26.10;;;14.80;;
57325;SDS011;43161;50.950;18.224;2023-05-14T02:02:25;26.10;;;14.50;;
57325;SDS011;43161;50.950;18.224;2023-05-14T02:04:50;25.70;;;14.50;;
57325;SDS011;43161;50.950;18.224;2023-05-14T02:07:16;26.00;;;14.40;;
57325;SDS011;43161;50.950;18.224;2023-05-14T02:09:42;29.00;;;14.20;;
57325;SDS011;43161;50.950;18.224;2023-05-14T02:12:08;27.20;;;14.60;;
57325;SDS011;43161;50.950;18.224;2023-05-14T02:14:35;24.50;;;14.40;;
57325;SDS011;43161;50.950;18.224;2023-05-14T02:17:01;27.20;;;14.70;;
57325;SDS011;43161;50.950;18.224;2023-05-14T02:19:28;27.90;;;14.90;;
57325;SDS011;43161;50.950;18.224;2023-05-14T02:21:54;28.30;;;14.20;;
57325;SDS011;43161;50.950;18.224;2023-05-14T02:24:19;27.90;;;14.60;;
57325;SDS011;43161;50.950;18.224;2023-05-14T02:26:45;26.50;;;14.20;;
57325;SDS011;43161;50.950;18.224;2023-05-14T02:29:11;25.00;;;13.60;;
57325;SDS011;43161;50.950;18.224;2023-05-14T02:31:37;25.80;;;13.40;;
57325;SDS011;43161;50.950;18.224;2023-05-14T02:34:03;32.70;;;14.40;;
57325;SDS011;43161;50.950;18.224;2023-05-14T02:36:31;25.70;;;14.40;;
57325;SDS011;43161;50.950;18.224;2023-05-14T02:38:57;24.70;;;13.20;;
57325;SDS011;43161;50.950;18.224;2023-05-14T02:41:24;25.50;;;13.30;;
57325;SDS011;43161;50.950;18.224;2023-05-14T02:43:49;24.90;;;13.50;;
57325;SDS011;43161;50.950;18.224;2023-05-14T02:46:16;25.90;;;13.70;;
57325;SDS011;43161;50.950;18.224;2023-05-14T02:48:41;25.50;;;13.50;;
57325;SDS011;43161;50.950;18.224;2023-05-14T02:51:07;23.70;;;12.50;;
57325;SDS011;43161;50.950;18.224;2023-05-14T02:53:33;29.60;;;14.10;;
57325;SDS011;43161;50.950;18.224;2023-05-14T02:55:59;27.20;;;13.20;;
57325;SDS011;43161;50.950;18.224;2023-05-14T02:58:24;26.80;;;14.10;;
57325;SDS011;43161;50.950;18.224;2023-05-14T03:00:50;26.20;;;12.80;;
57325;SDS011;43161;50.950;18.224;2023-05-14T03:03:17;25.90;;;14.10;;
57325;SDS011;43161;50.950;18.224;2023-05-14T03:05:43;26.60;;;14.70;;
57325;SDS011;43161;50.950;18.224;2023-05-14T03:08:09;26.20;;;13.10;;
57325;SDS011;43161;50.950;18.224;2023-05-14T03:10:35;26.60;;;13.60;;
57325;SDS011;43161;50.950;18.224;2023-05-14T03:13:01;27.20;;;13.30;;
57325;SDS011;43161;50.950;18.224;2023-05-14T03:15:27;25.90;;;12.10;;
57325;SDS011;43161;50.950;18.224;2023-05-14T03:17:53;24.60;;;12.00;;
57325;SDS011;43161;50.950;18.224;2023-05-14T03:20:19;27.00;;;13.40;;
57325;SDS011;43161;50.950;18.224;2023-05-14T03:22:45;27.00;;;12.80;;
57325;SDS011;43161;50.950;18.224;2023-05-14T03:25:10;25.70;;;13.50;;
57325;SDS011;43161;50.950;18.224;2023-05-14T03:27:36;24.20;;;13.70;;
57325;SDS011;43161;50.950;18.224;2023-05-14T03:30:02;23.10;;;12.70;;
57325;SDS011;43161;50.950;18.224;2023-05-14T03:32:28;25.20;;;13.30;;
57325;SDS011;43161;50.950;18.224;2023-05-14T03:34:54;25.10;;;13.40;;
57325;SDS011;43161;50.950;18.224;2023-05-14T03:37:20;26.10;;;13.70;;
57325;SDS011;43161;50.950;18.224;2023-05-14T03:39:45;29.40;;;14.00;;
57325;SDS011;43161;50.950;18.224;2023-05-14T03:42:11;29.00;;;14.50;;
57325;SDS011;43161;50.950;18.224;2023-05-14T03:44:36;27.50;;;15.30;;
57325;SDS011;43161;50.950;18.224;2023-05-14T03:47:02;27.20;;;14.50;;
57325;SDS011;43161;50.950;18.224;2023-05-14T03:49:28;24.70;;;14.10;;
57325;SDS011;43161;50.950;18.224;2023-05-14T03:51:54;25.60;;;14.60;;
57325;SDS011;43161;50.950;18.224;2023-05-14T03:54:20;30.90;;;14.40;;
57325;SDS011;43161;50.950;18.224;2023-05-14T03:56:45;26.50;;;14.40;;
57325;SDS011;43161;50.950;18.224;2023-05-14T03:59:11;23.90;;;14.20;;
57325;SDS011;43161;50.950;18.224;2023-05-14T04:01:37;28.00;;;13.90;;
57325;SDS011;43161;50.950;18.224;2023-05-14T04:04:02;26.80;;;12.80;;
57325;SDS011;43161;50.950;18.224;2023-05-14T04:06:28;24.50;;;13.20;;
57325;SDS011;43161;50.950;18.224;2023-05-14T04:08:54;24.70;;;12.80;;
57325;SDS011;43161;50.950;18.224;2023-05-14T04:11:19;24.40;;;11.20;;
57325;SDS011;43161;50.950;18.224;2023-05-14T04:13:45;21.60;;;12.00;;
57325;SDS011;43161;50.950;18.224;2023-05-14T04:16:11;23.40;;;12.20;;
57325;SDS011;43161;50.950;18.224;2023-05-14T04:18:37;24.80;;;11.80;;
57325;SDS011;43161;50.950;18.224;2023-05-14T04:21:03;25.20;;;12.30;;
57325;SDS011;43161;50.950;18.224;2023-05-14T04:23:29;24.50;;;12.70;;
57325;SDS011;43161;50.950;18.224;2023-05-14T04:25:56;22.70;;;12.10;;
57325;SDS011;43161;50.950;18.224;2023-05-14T04:28:22;23.40;;;11.30;;
57325;SDS011;43161;50.950;18.224;2023-05-14T04:30:48;21.70;;;11.00;;
57325;SDS011;43161;50.950;18.224;2023-05-14T04:33:14;21.70;;;11.30;;
57325;SDS011;43161;50.950;18.224;2023-05-14T04:35:39;22.60;;;11.30;;
57325;SDS011;43161;50.950;18.224;2023-05-14T04:38:05;20.60;;;10.60;;
57325;SDS011;43161;50.950;18.224;2023-05-14T04:40:31;21.40;;;10.90;;
57325;SDS011;43161;50.950;18.224;2023-05-14T04:42:56;19.80;;;10.90;;
57325;SDS011;43161;50.950;18.224;2023-05-14T04:45:22;18.60;;;9.40;;
57325;SDS011;43161;50.950;18.224;2023-05-14T04:47:48;20.90;;;9.70;;
57325;SDS011;43161;50.950;18.224;2023-05-14T04:50:13;20.40;;;9.90;;
57325;SDS011;43161;50.950;18.224;2023-05-14T04:52:39;21.70;;;9.30;;
57325;SDS011;43161;50.950;18.224;2023-05-14T04:55:05;18.30;;;8.80;;
57325;SDS011;43161;50.950;18.224;2023-05-14T04:57:31;18.10;;;8.60;;
57325;SDS011;43161;50.950;18.224;2023-05-14T04:59:57;16.00;;;8.20;;
57325;SDS011;43161;50.950;18.224;2023-05-14T05:02:22;16.20;;;8.00;;
57325;SDS011;43161;50.950;18.224;2023-05-14T05:04:48;16.80;;;8.10;;
57325;SDS011;43161;50.950;18.224;2023-05-14T05:07:14;15.70;;;8.20;;
57325;SDS011;43161;50.950;18.224;2023-05-14T05:09:41;17.20;;;8.80;;
57325;SDS011;43161;50.950;18.224;2023-05-14T05:12:07;18.80;;;9.70;;
57325;SDS011;43161;50.950;18.224;2023-05-14T05:14:33;15.80;;;8.60;;
57325;SDS011;43161;50.950;18.224;2023-05-14T05:16:59;18.00;;;8.80;;
57325;SDS011;43161;50.950;18.224;2023-05-14T05:19:24;16.60;;;8.40;;
57325;SDS011;43161;50.950;18.224;2023-05-14T05:21:50;20.40;;;8.90;;
57325;SDS011;43161;50.950;18.224;2023-05-14T05:24:16;17.60;;;8.60;;
57325;SDS011;43161;50.950;18.224;2023-05-14T05:26:41;15.40;;;8.00;;
57325;SDS011;43161;50.950;18.224;2023-05-14T05:29:07;14.70;;;8.10;;
57325;SDS011;43161;50.950;18.224;2023-05-14T05:31:32;15.60;;;8.20;;
57325;SDS011;43161;50.950;18.224;2023-05-14T05:33:59;19.40;;;8.00;;
57325;SDS011;43161;50.950;18.224;2023-05-14T05:36:25;16.60;;;7.30;;
57325;SDS011;43161;50.950;18.224;2023-05-14T05:38:51;15.80;;;7.50;;
57325;SDS011;43161;50.950;18.224;2023-05-14T05:41:17;15.20;;;7.00;;
57325;SDS011;43161;50.950;18.224;2023-05-14T05:43:42;18.00;;;7.00;;
57325;SDS011;43161;50.950;18.224;2023-05-14T05:46:08;15.30;;;6.70;;
57325;SDS011;43161;50.950;18.224;2023-05-14T05:48:34;15.60;;;7.10;;
57325;SDS011;43161;50.950;18.224;2023-05-14T05:50:59;15.10;;;6.40;;
57325;SDS011;43161;50.950;18.224;2023-05-14T05:53:25;13.80;;;6.40;;
57325;SDS011;43161;50.950;18.224;2023-05-14T05:55:50;13.00;;;5.60;;
57325;SDS011;43161;50.950;18.224;2023-05-14T05:58:16;11.30;;;4.80;;
57325;SDS011;43161;50.950;18.224;2023-05-14T06:00:43;13.40;;;5.30;;
57325;SDS011;43161;50.950;18.224;2023-05-14T06:03:10;9.80;;;4.30;;
57325;SDS011;43161;50.950;18.224;2023-05-14T06:05:35;10.90;;;4.60;;
57325;SDS011;43161;50.950;18.224;2023-05-14T06:08:01;10.70;;;4.30;;
57325;SDS011;43161;50.950;18.224;2023-05-14T06:10:27;11.90;;;4.30;;
57325;SDS011;43161;50.950;18.224;2023-05-14T06:12:53;10.90;;;4.00;;
57325;SDS011;43161;50.950;18.224;2023-05-14T06:15:18;10.80;;;3.70;;
57325;SDS011;43161;50.950;18.224;2023-05-14T06:17:45;11.70;;;4.20;;
57325;SDS011;43161;50.950;18.224;2023-05-14T06:20:11;9.20;;;3.10;;
57325;SDS011;43161;50.950;18.224;2023-05-14T06:22:37;8.20;;;2.80;;
57325;SDS011;43161;50.950;18.224;2023-05-14T06:25:03;7.30;;;2.10;;
57325;SDS011;43161;50.950;18.224;2023-05-14T06:27:29;7.50;;;2.20;;
57325;SDS011;43161;50.950;18.224;2023-05-14T06:29:54;6.60;;;2.30;;
57325;SDS011;43161;50.950;18.224;2023-05-14T06:32:20;7.90;;;2.80;;
57325;SDS011;43161;50.950;18.224;2023-05-14T06:34:46;8.70;;;3.10;;
57325;SDS011;43161;50.950;18.224;2023-05-14T06:37:11;9.10;;;3.10;;
57325;SDS011;43161;50.950;18.224;2023-05-14T06:39:37;8.20;;;2.80;;
57325;SDS011;43161;50.950;18.224;2023-05-14T06:42:03;10.90;;;3.50;;
57325;SDS011;43161;50.950;18.224;2023-05-14T06:44:29;9.00;;;3.40;;
57325;SDS011;43161;50.950;18.224;2023-05-14T06:46:55;8.90;;;3.20;;
57325;SDS011;43161;50.950;18.224;2023-05-14T06:49:21;8.40;;;2.90;;
57325;SDS011;43161;50.950;18.224;2023-05-14T06:51:47;8.20;;;3.00;;
57325;SDS011;43161;50.950;18.224;2023-05-14T06:54:13;7.10;;;2.70;;
57325;SDS011;43161;50.950;18.224;2023-05-14T06:56:38;8.50;;;2.70;;
57325;SDS011;43161;50.950;18.224;2023-05-14T06:59:04;7.10;;;2.40;;
57325;SDS011;43161;50.950;18.224;2023-05-14T07:01:30;6.60;;;2.20;;
57325;SDS011;43161;50.950;18.224;2023-05-14T07:03:55;7.70;;;2.20;;
57325;SDS011;43161;50.950;18.224;2023-05-14T07:06:21;6.60;;;2.30;;
57325;SDS011;43161;50.950;18.224;2023-05-14T07:08:47;6.70;;;2.10;;
57325;SDS011;43161;50.950;18.224;2023-05-14T07:11:13;6.70;;;2.30;;
57325;SDS011;43161;50.950;18.224;2023-05-14T07:13:40;5.80;;;1.90;;
57325;SDS011;43161;50.950;18.224;2023-05-14T07:16:06;5.60;;;2.00;;
57325;SDS011;43161;50.950;18.224;2023-05-14T07:18:35;5.40;;;1.90;;
57325;SDS011;43161;50.950;18.224;2023-05-14T07:21:00;5.80;;;1.80;;
57325;SDS011;43161;50.950;18.224;2023-05-14T07:23:26;6.40;;;1.90;;
57325;SDS011;43161;50.950;18.224;2023-05-14T07:25:51;8.80;;;2.10;;
57325;SDS011;43161;50.950;18.224;2023-05-14T07:28:17;5.80;;;2.00;;
57325;SDS011;43161;50.950;18.224;2023-05-14T07:30:42;7.00;;;1.90;;
57325;SDS011;43161;50.950;18.224;2023-05-14T07:33:08;4.70;;;1.60;;
57325;SDS011;43161;50.950;18.224;2023-05-14T07:35:33;5.00;;;1.60;;
57325;SDS011;43161;50.950;18.224;2023-05-14T07:37:59;6.10;;;1.60;;
57325;SDS011;43161;50.950;18.224;2023-05-14T07:40:25;5.70;;;1.50;;
57325;SDS011;43161;50.950;18.224;2023-05-14T07:42:51;5.20;;;1.70;;
57325;SDS011;43161;50.950;18.224;2023-05-14T07:45:17;5.80;;;1.60;;
57325;SDS011;43161;50.950;18.224;2023-05-14T07:47:42;6.30;;;1.90;;
57325;SDS011;43161;50.950;18.224;2023-05-14T07:50:08;4.40;;;1.50;;
57325;SDS011;43161;50.950;18.224;2023-05-14T07:52:34;5.10;;;1.50;;
57325;SDS011;43161;50.950;18.224;2023-05-14T07:55:01;4.10;;;1.30;;
57325;SDS011;43161;50.950;18.224;2023-05-14T07:57:27;4.50;;;1.60;;
57325;SDS011;43161;50.950;18.224;2023-05-14T07:59:53;5.30;;;1.50;;
57325;SDS011;43161;50.950;18.224;2023-05-14T08:02:20;4.50;;;1.40;;
57325;SDS011;43161;50.950;18.224;2023-05-14T08:04:46;4.10;;;1.40;;
57325;SDS011;43161;50.950;18.224;2023-05-14T08:07:12;4.10;;;1.30;;
57325;SDS011;43161;50.950;18.224;2023-05-14T08:09:37;5.90;;;1.50;;
57325;SDS011;43161;50.950;18.224;2023-05-14T08:12:03;4.80;;;1.40;;
57325;SDS011;43161;50.950;18.224;2023-05-14T08:14:29;5.40;;;1.40;;
57325;SDS011;43161;50.950;18.224;2023-05-14T08:16:55;5.70;;;1.70;;
57325;SDS011;43161;50.950;18.224;2023-05-14T08:19:21;5.00;;;1.40;;
57325;SDS011;43161;50.950;18.224;2023-05-14T08:21:48;4.50;;;1.60;;
57325;SDS011;43161;50.950;18.224;2023-05-14T08:24:16;5.80;;;1.60;;
57325;SDS011;43161;50.950;18.224;2023-05-14T08:26:43;5.40;;;1.40;;
57325;SDS011;43161;50.950;18.224;2023-05-14T08:29:08;4.80;;;1.40;;
57325;SDS011;43161;50.950;18.224;2023-05-14T08:31:34;4.80;;;1.40;;
57325;SDS011;43161;50.950;18.224;2023-05-14T08:34:00;5.40;;;1.40;;
57325;SDS011;43161;50.950;18.224;2023-05-14T08:36:26;5.40;;;1.40;;
57325;SDS011;43161;50.950;18.224;2023-05-14T08:38:51;6.00;;;1.40;;
57325;SDS011;43161;50.950;18.224;2023-05-14T08:41:17;4.00;;;1.40;;
57325;SDS011;43161;50.950;18.224;2023-05-14T08:43:44;4.20;;;1.20;;
57325;SDS011;43161;50.950;18.224;2023-05-14T08:46:26;4.30;;;1.10;;
57325;SDS011;43161;50.950;18.224;2023-05-14T08:51:52;5.30;;;1.40;;
57325;SDS011;43161;50.950;18.224;2023-05-14T08:54:18;5.20;;;1.00;;
57325;SDS011;43161;50.950;18.224;2023-05-14T08:56:46;4.80;;;1.20;;
57325;SDS011;43161;50.950;18.224;2023-05-14T08:59:12;4.40;;;1.30;;
57325;SDS011;43161;50.950;18.224;2023-05-14T09:01:40;4.50;;;1.30;;
57325;SDS011;43161;50.950;18.224;2023-05-14T09:04:09;5.20;;;1.30;;
57325;SDS011;43161;50.950;18.224;2023-05-14T09:06:35;5.40;;;1.40;;
57325;SDS011;43161;50.950;18.224;2023-05-14T09:09:04;4.90;;;1.30;;
57325;SDS011;43161;50.950;18.224;2023-05-14T09:11:31;4.50;;;1.30;;
57325;SDS011;43161;50.950;18.224;2023-05-14T09:13:56;5.80;;;1.40;;
57325;SDS011;43161;50.950;18.224;2023-05-14T09:16:22;3.90;;;1.20;;
57325;SDS011;43161;50.950;18.224;2023-05-14T09:18:50;9.50;;;1.70;;
57325;SDS011;43161;50.950;18.224;2023-05-14T09:21:16;5.30;;;1.30;;
57325;SDS011;43161;50.950;18.224;2023-05-14T09:23:42;4.30;;;1.20;;
57325;SDS011;43161;50.950;18.224;2023-05-14T09:26:09;5.50;;;1.40;;
57325;SDS011;43161;50.950;18.224;2023-05-14T09:28:38;6.40;;;1.30;;
57325;SDS011;43161;50.950;18.224;2023-05-14T09:31:04;3.70;;;1.30;;
57325;SDS011;43161;50.950;18.224;2023-05-14T09:33:31;4.60;;;1.50;;
57325;SDS011;43161;50.950;18.224;2023-05-14T09:35:57;4.40;;;1.50;;
57325;SDS011;43161;50.950;18.224;2023-05-14T09:38:31;5.10;;;1.50;;
57325;SDS011;43161;50.950;18.224;2023-05-14T09:40:58;6.20;;;1.40;;
57325;SDS011;43161;50.950;18.224;2023-05-14T09:43:24;4.70;;;1.20;;
57325;SDS011;43161;50.950;18.224;2023-05-14T09:45:50;5.10;;;1.40;;
57325;SDS011;43161;50.950;18.224;2023-05-14T09:48:17;5.00;;;1.30;;
57325;SDS011;43161;50.950;18.224;2023-05-14T09:50:43;4.80;;;1.20;;
57325;SDS011;43161;50.950;18.224;2023-05-14T09:53:10;4.40;;;1.40;;
57325;SDS011;43161;50.950;18.224;2023-05-14T09:55:37;3.90;;;1.20;;
57325;SDS011;43161;50.950;18.224;2023-05-14T09:58:03;5.80;;;1.50;;
57325;SDS011;43161;50.950;18.224;2023-05-14T10:00:30;3.80;;;1.30;;
57325;SDS011;43161;50.950;18.224;2023-05-14T10:02:56;4.70;;;1.30;;
57325;SDS011;43161;50.950;18.224;2023-05-14T10:05:23;5.70;;;1.40;;
57325;SDS011;43161;50.950;18.224;2023-05-14T10:07:52;3.60;;;1.30;;
57325;SDS011;43161;50.950;18.224;2023-05-14T10:10:19;4.10;;;1.30;;
57325;SDS011;43161;50.950;18.224;2023-05-14T10:12:54;3.20;;;1.10;;
57325;SDS011;43161;50.950;18.224;2023-05-14T10:18:22;4.00;;;1.20;;
57325;SDS011;43161;50.950;18.224;2023-05-14T10:21:06;5.20;;;1.60;;
57325;SDS011;43161;50.950;18.224;2023-05-14T10:23:32;9.80;;;2.70;;
57325;SDS011;43161;50.950;18.224;2023-05-14T10:26:02;5.40;;;1.80;;
57325;SDS011;43161;50.950;18.224;2023-05-14T10:28:29;5.20;;;1.50;;
57325;SDS011;43161;50.950;18.224;2023-05-14T10:30:56;5.40;;;1.50;;
57325;SDS011;43161;50.950;18.224;2023-05-14T10:33:21;4.70;;;1.40;;
57325;SDS011;43161;50.950;18.224;2023-05-14T10:35:51;4.90;;;1.30;;
57325;SDS011;43161;50.950;18.224;2023-05-14T10:38:26;3.50;;;1.20;;
57325;SDS011;43161;50.950;18.224;2023-05-14T10:41:13;5.30;;;1.30;;
57325;SDS011;43161;50.950;18.224;2023-05-14T10:43:42;3.50;;;1.20;;
57325;SDS011;43161;50.950;18.224;2023-05-14T10:46:08;6.10;;;1.60;;
57325;SDS011;43161;50.950;18.224;2023-05-14T10:48:36;7.00;;;1.50;;
57325;SDS011;43161;50.950;18.224;2023-05-14T10:51:03;4.30;;;1.20;;
57325;SDS011;43161;50.950;18.224;2023-05-14T10:53:38;4.60;;;1.40;;
57325;SDS011;43161;50.950;18.224;2023-05-14T10:56:05;5.00;;;1.50;;
57325;SDS011;43161;50.950;18.224;2023-05-14T10:58:36;5.90;;;1.80;;
57325;SDS011;43161;50.950;18.224;2023-05-14T11:01:07;7.10;;;1.60;;
57325;SDS011;43161;50.950;18.224;2023-05-14T11:06:06;6.70;;;1.90;;
57325;SDS011;43161;50.950;18.224;2023-05-14T11:08:33;5.30;;;1.40;;
57325;SDS011;43161;50.950;18.224;2023-05-14T11:10:59;4.60;;;1.50;;
57325;SDS011;43161;50.950;18.224;2023-05-14T11:13:25;5.00;;;1.60;;
57325;SDS011;43161;50.950;18.224;2023-05-14T11:15:51;7.40;;;1.40;;
57325;SDS011;43161;50.950;18.224;2023-05-14T11:21:03;6.00;;;1.70;;
57325;SDS011;43161;50.950;18.224;2023-05-14T11:23:28;5.60;;;1.60;;
57325;SDS011;43161;50.950;18.224;2023-05-14T11:25:55;5.20;;;1.50;;
57325;SDS011;43161;50.950;18.224;2023-05-14T11:28:25;6.30;;;1.80;;
57325;SDS011;43161;50.950;18.224;2023-05-14T11:30:51;6.20;;;2.00;;
57325;SDS011;43161;50.950;18.224;2023-05-14T11:33:18;8.80;;;2.00;;
57325;SDS011;43161;50.950;18.224;2023-05-14T11:35:44;6.10;;;1.80;;
57325;SDS011;43161;50.950;18.224;2023-05-14T11:38:17;5.40;;;1.80;;
57325;SDS011;43161;50.950;18.224;2023-05-14T11:40:50;6.50;;;2.10;;
57325;SDS011;43161;50.950;18.224;2023-05-14T11:43:18;7.40;;;2.00;;
57325;SDS011;43161;50.950;18.224;2023-05-14T11:45:48;6.80;;;1.90;;
57325;SDS011;43161;50.950;18.224;2023-05-14T11:48:15;6.00;;;2.10;;
57325;SDS011;43161;50.950;18.224;2023-05-14T11:50:49;7.10;;;2.30;;
57325;SDS011;43161;50.950;18.224;2023-05-14T11:53:17;5.40;;;1.90;;
57325;SDS011;43161;50.950;18.224;2023-05-14T11:55:44;9.10;;;2.10;;
57325;SDS011;43161;50.950;18.224;2023-05-14T11:58:10;6.40;;;2.00;;
57325;SDS011;43161;50.950;18.224;2023-05-14T12:00:37;7.30;;;2.50;;
57325;SDS011;43161;50.950;18.224;2023-05-14T12:03:03;7.60;;;2.40;;
57325;SDS011;43161;50.950;18.224;2023-05-14T12:05:28;6.30;;;2.10;;
57325;SDS011;43161;50.950;18.224;2023-05-14T12:07:54;8.60;;;2.30;;
57325;SDS011;43161;50.950;18.224;2023-05-14T12:10:20;6.90;;;2.20;;
57325;SDS011;43161;50.950;18.224;2023-05-14T12:12:46;6.50;;;2.30;;
57325;SDS011;43161;50.950;18.224;2023-05-14T12:15:13;6.70;;;2.30;;
57325;SDS011;43161;50.950;18.224;2023-05-14T12:17:40;6.30;;;2.20;;
57325;SDS011;43161;50.950;18.224;2023-05-14T12:20:09;6.40;;;2.20;;
57325;SDS011;43161;50.950;18.224;2023-05-14T12:22:35;5.70;;;2.10;;
57325;SDS011;43161;50.950;18.224;2023-05-14T12:25:01;8.00;;;2.30;;
57325;SDS011;43161;50.950;18.224;2023-05-14T12:27:28;7.60;;;2.30;;
57325;SDS011;43161;50.950;18.224;2023-05-14T12:29:58;6.90;;;2.40;;
57325;SDS011;43161;50.950;18.224;2023-05-14T12:32:24;5.60;;;2.20;;
57325;SDS011;43161;50.950;18.224;2023-05-14T12:34:51;8.10;;;2.60;;
57325;SDS011;43161;50.950;18.224;2023-05-14T12:37:16;7.20;;;2.70;;
57325;SDS011;43161;50.950;18.224;2023-05-14T12:39:42;5.90;;;2.10;;
57325;SDS011;43161;50.950;18.224;2023-05-14T12:42:08;6.50;;;2.40;;
57325;SDS011;43161;50.950;18.224;2023-05-14T12:44:34;6.80;;;2.50;;
57325;SDS011;43161;50.950;18.224;2023-05-14T12:46:59;8.30;;;3.00;;
57325;SDS011;43161;50.950;18.224;2023-05-14T12:49:25;9.40;;;3.00;;
57325;SDS011;43161;50.950;18.224;2023-05-14T12:51:50;10.40;;;2.90;;
57325;SDS011;43161;50.950;18.224;2023-05-14T12:54:16;7.80;;;3.40;;
57325;SDS011;43161;50.950;18.224;2023-05-14T12:56:42;7.40;;;2.40;;
57325;SDS011;43161;50.950;18.224;2023-05-14T12:59:07;11.10;;;2.70;;
57325;SDS011;43161;50.950;18.224;2023-05-14T13:01:34;8.40;;;2.80;;
57325;SDS011;43161;50.950;18.224;2023-05-14T13:03:59;7.40;;;2.70;;
57325;SDS011;43161;50.950;18.224;2023-05-14T13:06:25;7.80;;;2.80;;
57325;SDS011;43161;50.950;18.224;2023-05-14T13:08:51;8.30;;;2.60;;
57325;SDS011;43161;50.950;18.224;2023-05-14T13:11:16;6.50;;;2.40;;
57325;SDS011;43161;50.950;18.224;2023-05-14T13:13:42;9.10;;;2.50;;
57325;SDS011;43161;50.950;18.224;2023-05-14T13:16:08;7.60;;;2.50;;
57325;SDS011;43161;50.950;18.224;2023-05-14T13:18:34;7.10;;;2.40;;
57325;SDS011;43161;50.950;18.224;2023-05-14T13:20:59;8.80;;;2.80;;
57325;SDS011;43161;50.950;18.224;2023-05-14T13:23:28;7.80;;;2.80;;
57325;SDS011;43161;50.950;18.224;2023-05-14T13:25:53;8.60;;;2.90;;
57325;SDS011;43161;50.950;18.224;2023-05-14T13:28:19;7.00;;;2.60;;
57325;SDS011;43161;50.950;18.224;2023-05-14T13:33:31;9.60;;;2.70;;
57325;SDS011;43161;50.950;18.224;2023-05-14T13:35:57;12.40;;;5.30;;
57325;SDS011;43161;50.950;18.224;2023-05-14T13:38:23;8.10;;;2.80;;
57325;SDS011;43161;50.950;18.224;2023-05-14T13:40:49;7.60;;;2.80;;
57325;SDS011;43161;50.950;18.224;2023-05-14T13:43:14;7.60;;;2.90;;
57325;SDS011;43161;50.950;18.224;2023-05-14T13:45:41;8.40;;;3.00;;
57325;SDS011;43161;50.950;18.224;2023-05-14T13:48:06;8.80;;;2.80;;
57325;SDS011;43161;50.950;18.224;2023-05-14T13:50:32;8.30;;;2.90;;
57325;SDS011;43161;50.950;18.224;2023-05-14T13:52:58;8.70;;;2.80;;
57325;SDS011;43161;50.950;18.224;2023-05-14T13:55:23;8.40;;;2.90;;
57325;SDS011;43161;50.950;18.224;2023-05-14T13:57:49;9.20;;;3.10;;
57325;SDS011;43161;50.950;18.224;2023-05-14T14:00:14;9.40;;;3.20;;
57325;SDS011;43161;50.950;18.224;2023-05-14T14:02:41;7.40;;;3.00;;
57325;SDS011;43161;50.950;18.224;2023-05-14T14:05:06;10.20;;;4.10;;
57325;SDS011;43161;50.950;18.224;2023-05-14T14:07:32;8.30;;;3.70;;
57325;SDS011;43161;50.950;18.224;2023-05-14T14:09:58;7.80;;;2.90;;
57325;SDS011;43161;50.950;18.224;2023-05-14T14:12:25;6.80;;;2.70;;
57325;SDS011;43161;50.950;18.224;2023-05-14T14:14:51;8.00;;;3.30;;
57325;SDS011;43161;50.950;18.224;2023-05-14T14:17:17;8.10;;;3.10;;
57325;SDS011;43161;50.950;18.224;2023-05-14T14:19:43;8.90;;;2.70;;
57325;SDS011;43161;50.950;18.224;2023-05-14T14:22:08;7.90;;;3.00;;
57325;SDS011;43161;50.950;18.224;2023-05-14T14:24:34;7.80;;;2.90;;
57325;SDS011;43161;50.950;18.224;2023-05-14T14:27:00;8.50;;;2.60;;
57325;SDS011;43161;50.950;18.224;2023-05-14T14:29:26;8.10;;;2.60;;
57325;SDS011;43161;50.950;18.224;2023-05-14T14:31:55;7.60;;;2.90;;
57325;SDS011;43161;50.950;18.224;2023-05-14T14:34:21;7.80;;;2.70;;
57325;SDS011;43161;50.950;18.224;2023-05-14T14:36:47;8.10;;;2.90;;
57325;SDS011;43161;50.950;18.224;2023-05-14T14:39:12;7.30;;;2.50;;
57325;SDS011;43161;50.950;18.224;2023-05-14T14:41:38;8.10;;;2.80;;
57325;SDS011;43161;50.950;18.224;2023-05-14T14:44:04;9.80;;;2.60;;